sensor_id;sensor_type;location;lat;lon;timestamp;P1;durP1;ratioP1;P2;durP2;ratioP2
13493;SDS011;6819;50.886;4.332;2023-06-14T00:10:24;11.05;;;4.93;;
13493;SDS011;6819;50.886;4.332;2023-06-14T00:12:55;6.53;;;4.90;;
13493;SDS011;6819;50.886;4.332;2023-06-14T00:15:21;10.90;;;5.40;;
13493;SDS011;6819;50.886;4.332;2023-06-14T00:17:48;11.23;;;5.50;;
13493;SDS011;6819;50.886;4.332;2023-06-14T00:20:14;11.48;;;5.45;;
13493;SDS011;6819;50.886;4.332;2023-06-14T00:22:40;7.90;;;5.00;;
13493;SDS011;6819;50.886;4.332;2023-06-14T00:25:07;9.43;;;5.10;;
13493;SDS011;6819;50.886;4.332;2023-06-14T00:27:33;11.10;;;5.32;;
13493;SDS011;6819;50.886;4.332;2023-06-14T00:29:59;7.95;;;4.90;;
13493;SDS011;6819;50.886;4.332;2023-06-14T00:32:25;10.40;;;5.18;;
13493;SDS011;6819;50.886;4.332;2023-06-14T00:34:52;7.10;;;4.97;;
13493;SDS011;6819;50.886;4.332;2023-06-14T00:37:18;9.23;;;5.18;;
13493;SDS011;6819;50.886;4.332;2023-06-14T00:39:44;11.13;;;5.13;;
13493;SDS011;6819;50.886;4.332;2023-06-14T00:42:11;9.98;;;5.10;;
13493;SDS011;6819;50.886;4.332;2023-06-14T00:44:37;8.63;;;5.32;;
13493;SDS011;6819;50.886;4.332;2023-06-14T00:47:03;10.48;;;5.30;;
13493;SDS011;6819;50.886;4.332;2023-06-14T00:49:29;10.52;;;5.50;;
13493;SDS011;6819;50.886;4.332;2023-06-14T00:51:55;9.02;;;5.05;;
13493;SDS011;6819;50.886;4.332;2023-06-14T00:54:21;8.63;;;5.32;;
13493;SDS011;6819;50.886;4.332;2023-06-14T00:56:47;10.55;;;5.25;;
13493;SDS011;6819;50.886;4.332;2023-06-14T00:59:13;9.82;;;5.35;;
13493;SDS011;6819;50.886;4.332;2023-06-14T01:01:40;7.65;;;5.18;;
13493;SDS011;6819;50.886;4.332;2023-06-14T01:04:06;11.38;;;5.57;;
13493;SDS011;6819;50.886;4.332;2023-06-14T01:06:42;10.23;;;5.32;;
13493;SDS011;6819;50.886;4.332;2023-06-14T01:12:24;8.27;;;5.45;;
13493;SDS011;6819;50.886;4.332;2023-06-14T01:14:29;10.43;;;5.47;;
13493;SDS011;6819;50.886;4.332;2023-06-14T01:16:57;9.70;;;6.30;;
13493;SDS011;6819;50.886;4.332;2023-06-14T01:19:25;7.95;;;5.55;;
13493;SDS011;6819;50.886;4.332;2023-06-14T01:21:53;9.25;;;5.35;;
13493;SDS011;6819;50.886;4.332;2023-06-14T01:24:20;9.63;;;6.10;;
13493;SDS011;6819;50.886;4.332;2023-06-14T01:26:51;8.88;;;5.70;;
13493;SDS011;6819;50.886;4.332;2023-06-14T01:29:23;9.38;;;5.45;;
13493;SDS011;6819;50.886;4.332;2023-06-14T01:31:53;9.18;;;5.88;;
13493;SDS011;6819;50.886;4.332;2023-06-14T01:34:19;6.57;;;5.30;;
13493;SDS011;6819;50.886;4.332;2023-06-14T01:36:45;8.20;;;5.78;;
13493;SDS011;6819;50.886;4.332;2023-06-14T01:39:12;10.15;;;6.25;;
13493;SDS011;6819;50.886;4.332;2023-06-14T01:41:39;8.98;;;5.40;;
13493;SDS011;6819;50.886;4.332;2023-06-14T01:44:06;9.73;;;5.30;;
13493;SDS011;6819;50.886;4.332;2023-06-14T01:46:32;7.43;;;5.50;;
13493;SDS011;6819;50.886;4.332;2023-06-14T01:48:58;8.98;;;5.75;;
13493;SDS011;6819;50.886;4.332;2023-06-14T01:51:25;7.18;;;5.40;;
13493;SDS011;6819;50.886;4.332;2023-06-14T01:53:51;8.07;;;5.55;;
13493;SDS011;6819;50.886;4.332;2023-06-14T01:56:17;8.70;;;5.72;;
13493;SDS011;6819;50.886;4.332;2023-06-14T01:58:43;8.55;;;5.38;;
13493;SDS011;6819;50.886;4.332;2023-06-14T02:01:09;8.23;;;5.63;;
13493;SDS011;6819;50.886;4.332;2023-06-14T02:03:37;8.63;;;5.78;;
13493;SDS011;6819;50.886;4.332;2023-06-14T02:06:03;12.80;;;5.75;;
13493;SDS011;6819;50.886;4.332;2023-06-14T02:08:29;8.90;;;6.00;;
13493;SDS011;6819;50.886;4.332;2023-06-14T02:10:55;9.57;;;5.80;;
13493;SDS011;6819;50.886;4.332;2023-06-14T02:13:21;10.00;;;6.15;;
13493;SDS011;6819;50.886;4.332;2023-06-14T02:15:48;10.13;;;6.22;;
13493;SDS011;6819;50.886;4.332;2023-06-14T02:18:16;10.73;;;6.10;;
13493;SDS011;6819;50.886;4.332;2023-06-14T02:20:42;9.32;;;5.60;;
13493;SDS011;6819;50.886;4.332;2023-06-14T02:23:08;8.65;;;5.95;;
13493;SDS011;6819;50.886;4.332;2023-06-14T02:25:34;6.75;;;5.53;;
13493;SDS011;6819;50.886;4.332;2023-06-14T02:28:00;8.95;;;6.07;;
13493;SDS011;6819;50.886;4.332;2023-06-14T02:30:26;8.98;;;5.78;;
13493;SDS011;6819;50.886;4.332;2023-06-14T02:32:52;7.68;;;5.90;;
13493;SDS011;6819;50.886;4.332;2023-06-14T02:35:18;14.00;;;6.18;;
13493;SDS011;6819;50.886;4.332;2023-06-14T02:37:45;9.63;;;6.05;;
13493;SDS011;6819;50.886;4.332;2023-06-14T02:40:11;10.10;;;6.15;;
13493;SDS011;6819;50.886;4.332;2023-06-14T02:42:37;9.07;;;6.05;;
13493;SDS011;6819;50.886;4.332;2023-06-14T02:45:04;9.80;;;6.28;;
13493;SDS011;6819;50.886;4.332;2023-06-14T02:47:30;13.05;;;6.10;;
13493;SDS011;6819;50.886;4.332;2023-06-14T02:49:56;8.35;;;6.15;;
13493;SDS011;6819;50.886;4.332;2023-06-14T02:52:22;8.43;;;6.15;;
13493;SDS011;6819;50.886;4.332;2023-06-14T02:54:50;9.07;;;6.10;;
13493;SDS011;6819;50.886;4.332;2023-06-14T02:57:16;8.90;;;6.40;;
13493;SDS011;6819;50.886;4.332;2023-06-14T02:59:42;10.00;;;6.47;;
13493;SDS011;6819;50.886;4.332;2023-06-14T03:02:08;18.83;;;7.07;;
13493;SDS011;6819;50.886;4.332;2023-06-14T03:04:34;12.00;;;6.50;;
13493;SDS011;6819;50.886;4.332;2023-06-14T03:07:02;12.05;;;6.60;;
13493;SDS011;6819;50.886;4.332;2023-06-14T03:09:34;11.02;;;5.75;;
13493;SDS011;6819;50.886;4.332;2023-06-14T03:12:00;12.93;;;6.38;;
13493;SDS011;6819;50.886;4.332;2023-06-14T03:14:26;9.25;;;6.28;;
13493;SDS011;6819;50.886;4.332;2023-06-14T03:16:54;10.73;;;6.55;;
13493;SDS011;6819;50.886;4.332;2023-06-14T03:19:21;15.68;;;6.43;;
13493;SDS011;6819;50.886;4.332;2023-06-14T03:21:48;10.73;;;6.40;;
13493;SDS011;6819;50.886;4.332;2023-06-14T03:24:14;8.38;;;6.43;;
13493;SDS011;6819;50.886;4.332;2023-06-14T03:26:43;11.65;;;7.10;;
13493;SDS011;6819;50.886;4.332;2023-06-14T03:29:09;10.07;;;6.65;;
13493;SDS011;6819;50.886;4.332;2023-06-14T03:31:35;10.60;;;6.60;;
13493;SDS011;6819;50.886;4.332;2023-06-14T03:34:01;9.45;;;6.07;;
13493;SDS011;6819;50.886;4.332;2023-06-14T03:36:28;9.27;;;6.53;;
13493;SDS011;6819;50.886;4.332;2023-06-14T03:38:54;8.20;;;6.93;;
13493;SDS011;6819;50.886;4.332;2023-06-14T03:41:20;12.38;;;6.53;;
13493;SDS011;6819;50.886;4.332;2023-06-14T03:43:46;12.60;;;6.80;;
13493;SDS011;6819;50.886;4.332;2023-06-14T03:46:12;9.73;;;6.10;;
13493;SDS011;6819;50.886;4.332;2023-06-14T03:48:38;9.88;;;6.10;;
13493;SDS011;6819;50.886;4.332;2023-06-14T03:51:05;9.13;;;6.55;;
13493;SDS011;6819;50.886;4.332;2023-06-14T03:53:31;12.20;;;6.53;;
13493;SDS011;6819;50.886;4.332;2023-06-14T03:55:57;17.38;;;7.43;;
13493;SDS011;6819;50.886;4.332;2023-06-14T03:58:25;8.85;;;6.40;;
13493;SDS011;6819;50.886;4.332;2023-06-14T04:00:51;12.80;;;7.25;;
13493;SDS011;6819;50.886;4.332;2023-06-14T04:03:17;8.75;;;6.15;;
13493;SDS011;6819;50.886;4.332;2023-06-14T04:05:44;14.93;;;6.18;;
13493;SDS011;6819;50.886;4.332;2023-06-14T04:08:14;8.30;;;6.15;;
13493;SDS011;6819;50.886;4.332;2023-06-14T04:10:41;10.95;;;6.20;;
13493;SDS011;6819;50.886;4.332;2023-06-14T04:13:07;8.00;;;5.90;;
13493;SDS011;6819;50.886;4.332;2023-06-14T04:15:33;16.77;;;6.35;;
13493;SDS011;6819;50.886;4.332;2023-06-14T04:18:00;11.88;;;6.22;;
13493;SDS011;6819;50.886;4.332;2023-06-14T04:20:27;9.32;;;6.50;;
13493;SDS011;6819;50.886;4.332;2023-06-14T04:22:56;7.55;;;5.35;;
13493;SDS011;6819;50.886;4.332;2023-06-14T04:25:22;9.25;;;6.30;;
13493;SDS011;6819;50.886;4.332;2023-06-14T04:27:50;11.77;;;6.65;;
13493;SDS011;6819;50.886;4.332;2023-06-14T04:30:17;14.38;;;6.15;;
13493;SDS011;6819;50.886;4.332;2023-06-14T04:32:43;9.15;;;6.45;;
13493;SDS011;6819;50.886;4.332;2023-06-14T04:35:10;11.25;;;6.47;;
13493;SDS011;6819;50.886;4.332;2023-06-14T04:37:36;9.55;;;6.20;;
13493;SDS011;6819;50.886;4.332;2023-06-14T04:40:05;10.95;;;5.82;;
13493;SDS011;6819;50.886;4.332;2023-06-14T04:42:31;10.10;;;6.95;;
13493;SDS011;6819;50.886;4.332;2023-06-14T04:44:57;15.93;;;6.80;;
13493;SDS011;6819;50.886;4.332;2023-06-14T04:47:23;9.30;;;6.07;;
13493;SDS011;6819;50.886;4.332;2023-06-14T04:49:53;12.32;;;6.15;;
13493;SDS011;6819;50.886;4.332;2023-06-14T04:52:19;8.45;;;5.93;;
13493;SDS011;6819;50.886;4.332;2023-06-14T04:54:46;15.45;;;6.90;;
13493;SDS011;6819;50.886;4.332;2023-06-14T04:57:12;10.73;;;6.63;;
13493;SDS011;6819;50.886;4.332;2023-06-14T04:59:39;10.32;;;6.45;;
13493;SDS011;6819;50.886;4.332;2023-06-14T05:02:05;10.13;;;6.90;;
13493;SDS011;6819;50.886;4.332;2023-06-14T05:04:32;12.23;;;7.30;;
13493;SDS011;6819;50.886;4.332;2023-06-14T05:06:58;13.48;;;6.90;;
13493;SDS011;6819;50.886;4.332;2023-06-14T05:09:26;12.65;;;6.43;;
13493;SDS011;6819;50.886;4.332;2023-06-14T05:11:52;12.57;;;6.90;;
13493;SDS011;6819;50.886;4.332;2023-06-14T05:14:18;12.82;;;6.65;;
13493;SDS011;6819;50.886;4.332;2023-06-14T05:16:44;12.20;;;6.88;;
13493;SDS011;6819;50.886;4.332;2023-06-14T05:19:11;9.65;;;6.90;;
13493;SDS011;6819;50.886;4.332;2023-06-14T05:21:37;12.52;;;7.20;;
13493;SDS011;6819;50.886;4.332;2023-06-14T05:24:04;15.35;;;7.15;;
13493;SDS011;6819;50.886;4.332;2023-06-14T05:26:30;16.58;;;7.18;;
13493;SDS011;6819;50.886;4.332;2023-06-14T05:28:56;10.45;;;7.07;;
13493;SDS011;6819;50.886;4.332;2023-06-14T05:31:22;11.75;;;6.97;;
13493;SDS011;6819;50.886;4.332;2023-06-14T05:33:49;12.00;;;7.35;;
13493;SDS011;6819;50.886;4.332;2023-06-14T05:36:15;14.10;;;6.82;;
13493;SDS011;6819;50.886;4.332;2023-06-14T05:38:41;10.88;;;7.07;;
13493;SDS011;6819;50.886;4.332;2023-06-14T05:41:07;13.70;;;6.40;;
13493;SDS011;6819;50.886;4.332;2023-06-14T05:43:33;13.98;;;6.57;;
13493;SDS011;6819;50.886;4.332;2023-06-14T05:45:59;14.05;;;7.25;;
13493;SDS011;6819;50.886;4.332;2023-06-14T05:48:25;13.55;;;6.85;;
13493;SDS011;6819;50.886;4.332;2023-06-14T05:50:51;16.50;;;7.32;;
13493;SDS011;6819;50.886;4.332;2023-06-14T05:53:17;12.98;;;6.40;;
13493;SDS011;6819;50.886;4.332;2023-06-14T05:55:43;12.18;;;6.80;;
13493;SDS011;6819;50.886;4.332;2023-06-14T05:58:10;9.85;;;6.70;;
13493;SDS011;6819;50.886;4.332;2023-06-14T06:00:36;11.63;;;6.93;;
13493;SDS011;6819;50.886;4.332;2023-06-14T06:03:02;10.48;;;6.13;;
13493;SDS011;6819;50.886;4.332;2023-06-14T06:05:28;10.57;;;6.60;;
13493;SDS011;6819;50.886;4.332;2023-06-14T06:07:54;11.98;;;6.65;;
13493;SDS011;6819;50.886;4.332;2023-06-14T06:10:20;14.10;;;7.32;;
13493;SDS011;6819;50.886;4.332;2023-06-14T06:12:46;16.33;;;7.40;;
13493;SDS011;6819;50.886;4.332;2023-06-14T06:15:13;9.85;;;6.40;;
13493;SDS011;6819;50.886;4.332;2023-06-14T06:17:39;16.60;;;6.85;;
13493;SDS011;6819;50.886;4.332;2023-06-14T06:20:06;14.00;;;7.32;;
13493;SDS011;6819;50.886;4.332;2023-06-14T06:22:33;14.68;;;6.78;;
13493;SDS011;6819;50.886;4.332;2023-06-14T06:24:59;12.07;;;6.30;;
13493;SDS011;6819;50.886;4.332;2023-06-14T06:27:25;16.45;;;6.82;;
13493;SDS011;6819;50.886;4.332;2023-06-14T06:29:51;12.90;;;6.88;;
13493;SDS011;6819;50.886;4.332;2023-06-14T06:32:18;11.18;;;6.70;;
13493;SDS011;6819;50.886;4.332;2023-06-14T06:34:44;11.93;;;6.13;;
13493;SDS011;6819;50.886;4.332;2023-06-14T06:37:10;10.52;;;6.25;;
13493;SDS011;6819;50.886;4.332;2023-06-14T06:39:36;8.18;;;6.30;;
13493;SDS011;6819;50.886;4.332;2023-06-14T06:42:02;12.32;;;7.32;;
13493;SDS011;6819;50.886;4.332;2023-06-14T06:44:28;10.70;;;6.18;;
13493;SDS011;6819;50.886;4.332;2023-06-14T06:46:54;13.23;;;6.57;;
13493;SDS011;6819;50.886;4.332;2023-06-14T06:49:20;8.35;;;5.72;;
13493;SDS011;6819;50.886;4.332;2023-06-14T06:52:00;14.50;;;6.70;;
13493;SDS011;6819;50.886;4.332;2023-06-14T06:54:27;15.07;;;6.50;;
13493;SDS011;6819;50.886;4.332;2023-06-14T06:56:53;11.23;;;6.20;;
13493;SDS011;6819;50.886;4.332;2023-06-14T06:59:19;12.95;;;6.10;;
13493;SDS011;6819;50.886;4.332;2023-06-14T07:01:46;15.65;;;6.63;;
13493;SDS011;6819;50.886;4.332;2023-06-14T07:04:12;12.00;;;5.65;;
13493;SDS011;6819;50.886;4.332;2023-06-14T07:06:38;11.68;;;5.53;;
13493;SDS011;6819;50.886;4.332;2023-06-14T07:09:04;7.15;;;5.47;;
13493;SDS011;6819;50.886;4.332;2023-06-14T07:11:33;9.82;;;5.88;;
13493;SDS011;6819;50.886;4.332;2023-06-14T07:13:59;13.05;;;5.88;;
13493;SDS011;6819;50.886;4.332;2023-06-14T07:16:25;12.50;;;6.18;;
13493;SDS011;6819;50.886;4.332;2023-06-14T07:18:51;6.97;;;5.47;;
13493;SDS011;6819;50.886;4.332;2023-06-14T07:21:17;14.10;;;5.97;;
13493;SDS011;6819;50.886;4.332;2023-06-14T07:23:43;11.23;;;5.85;;
13493;SDS011;6819;50.886;4.332;2023-06-14T07:26:10;9.70;;;6.05;;
13493;SDS011;6819;50.886;4.332;2023-06-14T07:28:36;14.65;;;6.45;;
13493;SDS011;6819;50.886;4.332;2023-06-14T07:31:02;9.40;;;6.07;;
13493;SDS011;6819;50.886;4.332;2023-06-14T07:33:28;8.82;;;5.35;;
13493;SDS011;6819;50.886;4.332;2023-06-14T07:35:54;11.10;;;6.05;;
13493;SDS011;6819;50.886;4.332;2023-06-14T07:38:20;15.02;;;6.00;;
13493;SDS011;6819;50.886;4.332;2023-06-14T07:40:46;14.25;;;6.13;;
13493;SDS011;6819;50.886;4.332;2023-06-14T07:43:12;19.17;;;5.90;;
13493;SDS011;6819;50.886;4.332;2023-06-14T07:45:38;16.98;;;6.30;;
13493;SDS011;6819;50.886;4.332;2023-06-14T07:48:04;12.98;;;5.90;;
13493;SDS011;6819;50.886;4.332;2023-06-14T07:50:30;16.00;;;6.35;;
13493;SDS011;6819;50.886;4.332;2023-06-14T07:52:56;15.18;;;5.95;;
13493;SDS011;6819;50.886;4.332;2023-06-14T07:55:22;9.88;;;5.75;;
13493;SDS011;6819;50.886;4.332;2023-06-14T07:57:50;9.65;;;5.25;;
13493;SDS011;6819;50.886;4.332;2023-06-14T08:00:16;12.13;;;6.28;;
13493;SDS011;6819;50.886;4.332;2023-06-14T08:02:43;10.70;;;5.38;;
13493;SDS011;6819;50.886;4.332;2023-06-14T08:05:10;10.90;;;5.32;;
13493;SDS011;6819;50.886;4.332;2023-06-14T08:07:37;11.15;;;5.30;;
13493;SDS011;6819;50.886;4.332;2023-06-14T08:10:03;8.52;;;5.75;;
13493;SDS011;6819;50.886;4.332;2023-06-14T08:12:30;11.35;;;5.70;;
13493;SDS011;6819;50.886;4.332;2023-06-14T08:14:56;8.35;;;5.60;;
13493;SDS011;6819;50.886;4.332;2023-06-14T08:17:22;9.23;;;4.95;;
13493;SDS011;6819;50.886;4.332;2023-06-14T08:19:48;8.05;;;4.97;;
13493;SDS011;6819;50.886;4.332;2023-06-14T08:22:14;10.45;;;5.22;;
13493;SDS011;6819;50.886;4.332;2023-06-14T08:24:41;12.88;;;5.60;;
13493;SDS011;6819;50.886;4.332;2023-06-14T08:27:07;8.68;;;5.60;;
13493;SDS011;6819;50.886;4.332;2023-06-14T08:29:33;8.27;;;5.68;;
13493;SDS011;6819;50.886;4.332;2023-06-14T08:31:59;15.27;;;6.45;;
13493;SDS011;6819;50.886;4.332;2023-06-14T08:34:26;9.70;;;5.35;;
13493;SDS011;6819;50.886;4.332;2023-06-14T08:36:52;8.55;;;5.63;;
13493;SDS011;6819;50.886;4.332;2023-06-14T08:39:18;9.15;;;5.47;;
13493;SDS011;6819;50.886;4.332;2023-06-14T08:41:45;10.13;;;5.55;;
13493;SDS011;6819;50.886;4.332;2023-06-14T08:44:13;15.88;;;5.57;;
13493;SDS011;6819;50.886;4.332;2023-06-14T08:46:40;14.90;;;5.57;;
13493;SDS011;6819;50.886;4.332;2023-06-14T08:49:07;9.80;;;5.28;;
13493;SDS011;6819;50.886;4.332;2023-06-14T08:51:34;12.40;;;6.07;;
13493;SDS011;6819;50.886;4.332;2023-06-14T08:54:01;13.02;;;5.82;;
13493;SDS011;6819;50.886;4.332;2023-06-14T08:56:29;10.77;;;5.47;;
13493;SDS011;6819;50.886;4.332;2023-06-14T08:58:56;14.07;;;5.55;;
13493;SDS011;6819;50.886;4.332;2023-06-14T09:01:26;15.48;;;5.47;;
13493;SDS011;6819;50.886;4.332;2023-06-14T09:03:52;8.68;;;4.88;;
13493;SDS011;6819;50.886;4.332;2023-06-14T09:06:20;10.45;;;5.43;;
13493;SDS011;6819;50.886;4.332;2023-06-14T09:08:48;7.28;;;5.32;;
13493;SDS011;6819;50.886;4.332;2023-06-14T09:11:15;8.15;;;5.82;;
13493;SDS011;6819;50.886;4.332;2023-06-14T09:13:43;9.23;;;5.25;;
13493;SDS011;6819;50.886;4.332;2023-06-14T09:16:09;9.30;;;5.80;;
13493;SDS011;6819;50.886;4.332;2023-06-14T09:21:06;11.25;;;5.35;;
13493;SDS011;6819;50.886;4.332;2023-06-14T09:23:38;7.70;;;5.18;;
13493;SDS011;6819;50.886;4.332;2023-06-14T09:26:26;8.27;;;6.00;;
13493;SDS011;6819;50.886;4.332;2023-06-14T09:28:52;9.55;;;6.30;;
13493;SDS011;6819;50.886;4.332;2023-06-14T09:31:20;14.90;;;5.78;;
13493;SDS011;6819;50.886;4.332;2023-06-14T09:33:50;12.27;;;6.10;;
13493;SDS011;6819;50.886;4.332;2023-06-14T09:36:22;10.63;;;5.80;;
13493;SDS011;6819;50.886;4.332;2023-06-14T09:38:52;7.82;;;5.55;;
13493;SDS011;6819;50.886;4.332;2023-06-14T09:41:19;9.55;;;5.57;;
13493;SDS011;6819;50.886;4.332;2023-06-14T09:43:46;7.75;;;5.53;;
13493;SDS011;6819;50.886;4.332;2023-06-14T09:46:13;15.52;;;6.13;;
13493;SDS011;6819;50.886;4.332;2023-06-14T09:48:39;15.55;;;6.40;;
13493;SDS011;6819;50.886;4.332;2023-06-14T09:51:08;11.48;;;6.45;;
13493;SDS011;6819;50.886;4.332;2023-06-14T09:53:35;14.52;;;6.63;;
13493;SDS011;6819;50.886;4.332;2023-06-14T09:56:02;13.00;;;5.78;;
13493;SDS011;6819;50.886;4.332;2023-06-14T09:58:30;7.35;;;5.55;;
13493;SDS011;6819;50.886;4.332;2023-06-14T10:00:56;10.48;;;5.65;;
13493;SDS011;6819;50.886;4.332;2023-06-14T10:03:27;10.07;;;5.50;;
13493;SDS011;6819;50.886;4.332;2023-06-14T10:05:55;13.45;;;5.35;;
13493;SDS011;6819;50.886;4.332;2023-06-14T10:08:23;10.18;;;4.90;;
13493;SDS011;6819;50.886;4.332;2023-06-14T10:10:51;7.53;;;5.10;;
13493;SDS011;6819;50.886;4.332;2023-06-14T10:13:17;9.38;;;5.28;;
13493;SDS011;6819;50.886;4.332;2023-06-14T10:18:28;9.05;;;4.75;;
13493;SDS011;6819;50.886;4.332;2023-06-14T10:21:00;10.90;;;6.80;;
13493;SDS011;6819;50.886;4.332;2023-06-14T10:23:32;7.90;;;5.00;;
13493;SDS011;6819;50.886;4.332;2023-06-14T10:26:01;10.52;;;4.88;;
13493;SDS011;6819;50.886;4.332;2023-06-14T10:28:27;8.90;;;5.32;;
13493;SDS011;6819;50.886;4.332;2023-06-14T10:33:33;14.50;;;4.85;;
13493;SDS011;6819;50.886;4.332;2023-06-14T10:38:44;13.65;;;5.53;;
13493;SDS011;6819;50.886;4.332;2023-06-14T10:41:10;6.10;;;4.50;;
13493;SDS011;6819;50.886;4.332;2023-06-14T10:43:36;10.48;;;5.03;;
13493;SDS011;6819;50.886;4.332;2023-06-14T10:46:15;7.13;;;4.75;;
13493;SDS011;6819;50.886;4.332;2023-06-14T10:48:42;5.88;;;4.00;;
13493;SDS011;6819;50.886;4.332;2023-06-14T10:51:16;11.05;;;4.60;;
13493;SDS011;6819;50.886;4.332;2023-06-14T10:53:45;10.90;;;4.63;;
13493;SDS011;6819;50.886;4.332;2023-06-14T10:56:33;10.00;;;5.30;;
13493;SDS011;6819;50.886;4.332;2023-06-14T10:58:58;8.27;;;4.50;;
13493;SDS011;6819;50.886;4.332;2023-06-14T11:03:56;11.05;;;4.88;;
13493;SDS011;6819;50.886;4.332;2023-06-14T11:06:22;11.02;;;5.22;;
13493;SDS011;6819;50.886;4.332;2023-06-14T11:11:25;7.75;;;4.45;;
13493;SDS011;6819;50.886;4.332;2023-06-14T11:13:55;7.05;;;4.50;;
13493;SDS011;6819;50.886;4.332;2023-06-14T11:16:21;7.82;;;4.60;;
13493;SDS011;6819;50.886;4.332;2023-06-14T11:18:52;7.43;;;4.57;;
13493;SDS011;6819;50.886;4.332;2023-06-14T11:21:18;9.13;;;4.32;;
13493;SDS011;6819;50.886;4.332;2023-06-14T11:23:51;8.30;;;4.53;;
13493;SDS011;6819;50.886;4.332;2023-06-14T11:26:28;5.85;;;4.47;;
13493;SDS011;6819;50.886;4.332;2023-06-14T11:28:55;13.15;;;4.55;;
13493;SDS011;6819;50.886;4.332;2023-06-14T11:31:21;5.50;;;4.00;;
13493;SDS011;6819;50.886;4.332;2023-06-14T11:33:50;8.32;;;4.40;;
13493;SDS011;6819;50.886;4.332;2023-06-14T11:36:18;8.32;;;4.50;;
13493;SDS011;6819;50.886;4.332;2023-06-14T11:38:44;9.43;;;4.57;;
13493;SDS011;6819;50.886;4.332;2023-06-14T11:41:10;7.15;;;4.65;;
13493;SDS011;6819;50.886;4.332;2023-06-14T11:43:37;9.43;;;4.90;;
13493;SDS011;6819;50.886;4.332;2023-06-14T11:46:03;9.55;;;5.40;;
13493;SDS011;6819;50.886;4.332;2023-06-14T11:48:38;13.13;;;4.68;;
13493;SDS011;6819;50.886;4.332;2023-06-14T11:51:04;7.22;;;3.83;;
13493;SDS011;6819;50.886;4.332;2023-06-14T11:53:31;9.07;;;4.25;;
13493;SDS011;6819;50.886;4.332;2023-06-14T11:55:57;6.95;;;4.45;;
13493;SDS011;6819;50.886;4.332;2023-06-14T11:58:23;6.50;;;4.32;;
13493;SDS011;6819;50.886;4.332;2023-06-14T12:00:51;4.97;;;4.07;;
13493;SDS011;6819;50.886;4.332;2023-06-14T12:03:17;7.72;;;4.43;;
13493;SDS011;6819;50.886;4.332;2023-06-14T12:05:48;17.88;;;4.85;;
13493;SDS011;6819;50.886;4.332;2023-06-14T12:08:14;7.18;;;4.35;;
13493;SDS011;6819;50.886;4.332;2023-06-14T12:10:43;6.45;;;4.15;;
13493;SDS011;6819;50.886;4.332;2023-06-14T12:13:09;8.80;;;4.15;;
13493;SDS011;6819;50.886;4.332;2023-06-14T12:15:36;10.02;;;4.60;;
13493;SDS011;6819;50.886;4.332;2023-06-14T12:18:05;9.32;;;4.20;;
13493;SDS011;6819;50.886;4.332;2023-06-14T12:20:32;6.07;;;4.18;;
13493;SDS011;6819;50.886;4.332;2023-06-14T12:22:58;5.43;;;3.97;;
13493;SDS011;6819;50.886;4.332;2023-06-14T12:25:33;9.95;;;4.25;;
13493;SDS011;6819;50.886;4.332;2023-06-14T12:28:06;5.25;;;4.05;;
13493;SDS011;6819;50.886;4.332;2023-06-14T12:30:33;7.63;;;4.28;;
13493;SDS011;6819;50.886;4.332;2023-06-14T12:33:01;11.68;;;4.45;;
13493;SDS011;6819;50.886;4.332;2023-06-14T12:35:27;8.25;;;3.88;;
13493;SDS011;6819;50.886;4.332;2023-06-14T12:37:53;7.80;;;3.58;;
13493;SDS011;6819;50.886;4.332;2023-06-14T12:40:19;7.82;;;3.90;;
13493;SDS011;6819;50.886;4.332;2023-06-14T12:42:46;8.90;;;4.00;;
13493;SDS011;6819;50.886;4.332;2023-06-14T12:45:15;5.22;;;3.92;;
13493;SDS011;6819;50.886;4.332;2023-06-14T12:47:41;9.55;;;3.95;;
13493;SDS011;6819;50.886;4.332;2023-06-14T12:50:07;6.18;;;4.13;;
13493;SDS011;6819;50.886;4.332;2023-06-14T12:52:33;9.82;;;4.90;;
13493;SDS011;6819;50.886;4.332;2023-06-14T12:55:03;8.73;;;4.13;;
13493;SDS011;6819;50.886;4.332;2023-06-14T12:57:30;8.18;;;3.72;;
13493;SDS011;6819;50.886;4.332;2023-06-14T12:59:56;5.60;;;4.00;;
13493;SDS011;6819;50.886;4.332;2023-06-14T13:02:22;5.90;;;3.85;;
13493;SDS011;6819;50.886;4.332;2023-06-14T13:04:49;11.77;;;4.28;;
13493;SDS011;6819;50.886;4.332;2023-06-14T13:07:15;5.85;;;3.67;;
13493;SDS011;6819;50.886;4.332;2023-06-14T13:09:41;8.10;;;4.32;;
13493;SDS011;6819;50.886;4.332;2023-06-14T13:12:09;12.63;;;3.90;;
13493;SDS011;6819;50.886;4.332;2023-06-14T13:14:36;9.55;;;3.70;;
13493;SDS011;6819;50.886;4.332;2023-06-14T13:17:02;10.20;;;3.83;;
13493;SDS011;6819;50.886;4.332;2023-06-14T13:19:28;8.80;;;3.65;;
13493;SDS011;6819;50.886;4.332;2023-06-14T13:21:55;7.90;;;3.55;;
13493;SDS011;6819;50.886;4.332;2023-06-14T13:24:21;8.57;;;3.25;;
13493;SDS011;6819;50.886;4.332;2023-06-14T13:26:47;6.53;;;3.63;;
13493;SDS011;6819;50.886;4.332;2023-06-14T13:29:13;7.57;;;3.65;;
13493;SDS011;6819;50.886;4.332;2023-06-14T13:31:39;7.88;;;3.75;;
13493;SDS011;6819;50.886;4.332;2023-06-14T13:34:05;7.45;;;3.72;;
13493;SDS011;6819;50.886;4.332;2023-06-14T13:36:31;13.68;;;4.35;;
13493;SDS011;6819;50.886;4.332;2023-06-14T13:38:57;9.07;;;3.58;;
13493;SDS011;6819;50.886;4.332;2023-06-14T13:41:25;5.65;;;3.60;;
13493;SDS011;6819;50.886;4.332;2023-06-14T13:43:56;8.98;;;3.30;;
13493;SDS011;6819;50.886;4.332;2023-06-14T13:46:22;5.32;;;2.83;;
13493;SDS011;6819;50.886;4.332;2023-06-14T13:48:48;4.40;;;3.30;;
13493;SDS011;6819;50.886;4.332;2023-06-14T13:51:14;4.72;;;3.42;;
13493;SDS011;6819;50.886;4.332;2023-06-14T13:53:45;6.07;;;3.38;;
13493;SDS011;6819;50.886;4.332;2023-06-14T13:56:12;7.43;;;3.40;;
13493;SDS011;6819;50.886;4.332;2023-06-14T13:58:38;5.97;;;3.17;;
13493;SDS011;6819;50.886;4.332;2023-06-14T14:01:04;7.18;;;3.17;;
13493;SDS011;6819;50.886;4.332;2023-06-14T14:03:30;8.85;;;2.97;;
13493;SDS011;6819;50.886;4.332;2023-06-14T14:05:57;7.18;;;2.70;;
13493;SDS011;6819;50.886;4.332;2023-06-14T14:08:23;8.95;;;2.80;;
13493;SDS011;6819;50.886;4.332;2023-06-14T14:10:49;3.47;;;2.70;;
13493;SDS011;6819;50.886;4.332;2023-06-14T14:13:16;3.55;;;2.70;;
13493;SDS011;6819;50.886;4.332;2023-06-14T14:15:42;3.67;;;2.85;;
13493;SDS011;6819;50.886;4.332;2023-06-14T14:18:08;8.20;;;2.88;;
13493;SDS011;6819;50.886;4.332;2023-06-14T14:20:34;3.67;;;2.55;;
13493;SDS011;6819;50.886;4.332;2023-06-14T14:23:00;7.28;;;2.67;;
13493;SDS011;6819;50.886;4.332;2023-06-14T14:25:27;6.15;;;2.85;;
13493;SDS011;6819;50.886;4.332;2023-06-14T14:27:53;6.03;;;2.60;;
13493;SDS011;6819;50.886;4.332;2023-06-14T14:30:19;3.33;;;2.50;;
13493;SDS011;6819;50.886;4.332;2023-06-14T14:32:48;4.53;;;2.40;;
13493;SDS011;6819;50.886;4.332;2023-06-14T14:35:15;4.68;;;2.50;;
13493;SDS011;6819;50.886;4.332;2023-06-14T14:37:42;5.03;;;3.20;;
13493;SDS011;6819;50.886;4.332;2023-06-14T14:40:08;8.75;;;2.45;;
13493;SDS011;6819;50.886;4.332;2023-06-14T14:42:35;4.97;;;2.70;;
13493;SDS011;6819;50.886;4.332;2023-06-14T14:45:01;5.68;;;2.35;;
13493;SDS011;6819;50.886;4.332;2023-06-14T14:47:28;5.03;;;2.30;;
13493;SDS011;6819;50.886;4.332;2023-06-14T14:49:54;3.17;;;1.85;;
13493;SDS011;6819;50.886;4.332;2023-06-14T14:52:20;4.13;;;2.83;;
13493;SDS011;6819;50.886;4.332;2023-06-14T14:54:46;3.17;;;2.10;;
13493;SDS011;6819;50.886;4.332;2023-06-14T14:57:12;6.85;;;2.05;;
13493;SDS011;6819;50.886;4.332;2023-06-14T14:59:38;5.00;;;2.08;;
13493;SDS011;6819;50.886;4.332;2023-06-14T15:02:04;5.45;;;1.98;;
13493;SDS011;6819;50.886;4.332;2023-06-14T15:04:30;2.50;;;2.08;;
13493;SDS011;6819;50.886;4.332;2023-06-14T15:06:56;7.05;;;2.20;;
13493;SDS011;6819;50.886;4.332;2023-06-14T15:09:22;4.07;;;2.33;;
13493;SDS011;6819;50.886;4.332;2023-06-14T15:11:48;5.47;;;2.05;;
13493;SDS011;6819;50.886;4.332;2023-06-14T15:14:14;3.05;;;2.20;;
13493;SDS011;6819;50.886;4.332;2023-06-14T15:16:41;6.15;;;2.10;;
13493;SDS011;6819;50.886;4.332;2023-06-14T15:19:07;5.45;;;2.30;;
13493;SDS011;6819;50.886;4.332;2023-06-14T15:21:33;7.00;;;2.28;;